Terminal Aerodrome Forecast
Issued by NWS Louisville, KY

Home | Current Version | Previous Version | Text Only | Print | Product List | Glossary On
Versions: 1 2 3 4 5 6 7 8 9 10 11 12 13
000
FTUS43 KLMK 271100
TAFLEX
TAF
KLEX 271120Z 2712/2812 VRB04KT P6SM BKN030
     FM271700 35005KT P6SM BKN035
     FM280000 05005KT P6SM BKN150=

USA.gov is the U.S. government's official web portal to all federal, state and local government web resources and services.